Time;durP1;ratioP1;P1;durP2;ratioP2;P2;SDS_P1;SDS_P2;PMS_P1;PMS_P2;Temp;Humidity;BMP_temperature;BMP_pressure;BME280_temperature;BME280_humidity;BME280_pressure;Samples;Min_cycle;Max_cycle;Signal;HPM_P1;HPM_P2
2023/04/02 00:02:20;;;;;;;9.52;3.30;;;3.60;99.90;;;;;;4954087;28;20051;-87
2023/04/02 00:05:15;;;;;;;9.23;3.35;;;3.50;99.90;;;;;;4954320;28;20062;-87
2023/04/02 00:07:43;;;;;;;12.73;3.38;;;3.40;99.90;;;;;;4927045;28;20454;-85
2023/04/02 00:10:29;;;;;;;10.50;3.70;;;3.70;99.90;;;;;;4937374;28;20494;-86
2023/04/02 00:13:20;;;;;;;7.80;2.75;;;3.20;99.90;;;;;;4944437;28;20051;-86
2023/04/02 00:15:49;;;;;;;10.70;3.00;;;3.20;99.90;;;;;;4927068;28;20050;-86
2023/04/02 00:18:18;;;;;;;7.07;3.22;;;3.10;99.90;;;;;;4936263;28;20066;-86
2023/04/02 00:20:50;;;;;;;11.27;3.28;;;3.30;99.90;;;;;;4934068;28;20105;-86
2023/04/02 00:23:16;;;;;;;13.30;3.92;;;3.00;99.90;;;;;;4937116;28;20145;-86
2023/04/02 00:25:44;;;;;;;12.43;3.45;;;3.00;99.90;;;;;;4936911;28;20130;-86
2023/04/02 00:28:20;;;;;;;8.63;3.13;;;3.00;99.90;;;;;;4937234;28;20074;-86
2023/04/02 00:30:50;;;;;;;8.98;3.35;;;2.90;99.90;;;;;;4937417;28;20047;-86
2023/04/02 00:33:18;;;;;;;9.50;3.25;;;2.70;99.90;;;;;;4932367;28;20054;-86
2023/04/02 00:35:44;;;;;;;13.27;3.08;;;3.00;99.90;;;;;;4936807;28;20511;-86
2023/04/02 00:38:22;;;;;;;7.20;3.00;;;2.80;99.90;;;;;;4936191;28;20049;-86
2023/04/02 00:40:50;;;;;;;10.75;2.92;;;2.70;99.90;;;;;;4936034;28;20050;-86
2023/04/02 00:43:16;;;;;;;9.00;3.08;;;3.10;99.90;;;;;;4937208;28;20050;-86
2023/04/02 00:45:49;;;;;;;11.43;3.20;;;3.20;99.90;;;;;;4951560;28;20070;-86
2023/04/02 00:48:29;;;;;;;11.00;3.25;;;2.60;99.90;;;;;;4937006;28;20086;-86
2023/04/02 00:50:57;;;;;;;8.63;3.10;;;3.30;99.90;;;;;;4951868;28;20041;-86
2023/04/02 00:53:27;;;;;;;9.32;3.00;;;3.10;99.90;;;;;;4936037;28;20047;-86
2023/04/02 00:55:56;;;;;;;10.63;3.67;;;2.50;99.90;;;;;;4936996;28;20531;-86
2023/04/02 00:58:31;;;;;;;8.82;2.85;;;3.00;99.90;;;;;;4936503;28;20046;-85
2023/04/02 01:00:58;;;;;;;10.15;3.38;;;2.50;99.90;;;;;;4924309;28;20038;-85
2023/04/02 01:03:29;;;;;;;7.80;3.10;;;3.20;99.90;;;;;;4953099;28;20058;-85
2023/04/02 01:06:04;;;;;;;9.05;2.95;;;2.50;99.90;;;;;;4951967;28;20078;-85
2023/04/02 01:08:48;;;;;;;8.43;3.30;;;2.50;99.90;;;;;;4936597;28;20402;-85
2023/04/02 01:11:30;;;;;;;9.43;3.15;;;2.50;99.90;;;;;;4952344;28;20066;-85
2023/04/02 01:14:03;;;;;;;6.20;2.70;;;2.40;99.90;;;;;;4935998;28;20118;-85
2023/04/02 01:16:29;;;;;;;;;;;2.80;99.90;;;;;;4936943;28;20046;-86
2023/04/02 01:19:12;;;;;;;7.80;2.78;;;2.30;99.90;;;;;;4936544;28;19925;-85
2023/04/02 01:22:01;;;;;;;8.82;2.80;;;2.30;99.90;;;;;;4934979;28;20394;-86
2023/04/02 01:24:32;;;;;;;10.80;3.08;;;2.30;99.90;;;;;;4935594;28;20129;-86
2023/04/02 01:27:02;;;;;;;8.52;2.67;;;2.20;99.90;;;;;;4937193;28;20387;-85
2023/04/02 01:29:30;;;;;;;8.15;2.78;;;2.90;99.90;;;;;;4935660;28;20057;-85
2023/04/02 01:32:01;;;;;;;7.03;2.63;;;2.70;99.90;;;;;;4951871;28;20125;-85
2023/04/02 01:34:28;;;;;;;9.18;3.15;;;2.60;99.90;;;;;;4947494;28;20077;-85
2023/04/02 01:37:15;;;;;;;6.78;2.55;;;2.10;99.90;;;;;;4935416;28;20133;-85
2023/04/02 01:40:08;;;;;;;6.95;2.08;;;2.10;99.90;;;;;;4935635;28;20487;-85
2023/04/02 01:42:50;;;;;;;8.05;3.28;;;2.10;99.90;;;;;;4950814;28;20134;-86
2023/04/02 01:45:18;;;;;;;9.95;2.20;;;2.00;99.90;;;;;;4935924;28;20162;-87
2023/04/02 01:47:44;;;;;;;7.00;2.30;;;2.00;99.90;;;;;;4935809;28;20031;-85
2023/04/02 01:50:15;;;;;;;6.78;2.30;;;1.90;99.90;;;;;;4934905;28;20467;-85
2023/04/02 01:52:43;;;;;;;8.32;2.40;;;2.00;99.90;;;;;;4934872;28;20435;-85
2023/04/02 01:55:11;;;;;;;10.05;2.35;;;1.90;99.90;;;;;;4951457;28;20046;-85
2023/04/02 01:57:41;;;;;;;9.00;2.50;;;2.40;99.90;;;;;;4950733;28;20093;-85
2023/04/02 02:00:12;;;;;;;8.65;2.47;;;2.50;99.90;;;;;;4935051;28;20483;-85
2023/04/02 02:02:39;;;;;;;7.45;2.17;;;1.80;99.90;;;;;;4934935;28;20403;-85
2023/04/02 02:05:12;;;;;;;6.20;2.15;;;2.30;99.90;;;;;;4935149;28;20042;-86
2023/04/02 02:07:40;;;;;;;10.18;2.63;;;1.70;99.90;;;;;;4934479;28;20061;-86
2023/04/02 02:10:12;;;;;;;8.13;3.33;;;2.30;99.90;;;;;;4934472;28;20055;-86
2023/04/02 02:12:38;;;;;;;7.10;1.93;;;1.70;99.90;;;;;;4934850;28;20117;-85
2023/04/02 02:15:11;;;;;;;8.88;2.40;;;1.60;99.90;;;;;;4935421;28;20329;-86
2023/04/02 02:17:37;;;;;;;8.60;2.20;;;1.60;99.90;;;;;;4950097;28;20090;-85
2023/04/02 02:20:10;;;;;;;10.07;2.97;;;1.70;99.90;;;;;;4951065;28;20077;-85
2023/04/02 02:22:39;;;;;;;10.23;2.33;;;1.60;99.90;;;;;;4933961;28;20130;-85
2023/04/02 02:25:10;;;;;;;8.63;2.47;;;1.60;99.90;;;;;;4934642;28;20101;-85
2023/04/02 02:27:43;;;;;;;7.32;2.10;;;1.60;99.90;;;;;;4935269;28;20089;-85
2023/04/02 02:30:16;;;;;;;6.57;2.00;;;1.60;99.90;;;;;;4950716;28;20047;-85
2023/04/02 02:32:52;;;;;;;8.63;2.10;;;1.60;99.90;;;;;;4932056;28;20133;-86
2023/04/02 02:35:27;;;;;;;8.82;2.38;;;1.60;99.90;;;;;;4937750;28;20454;-86
2023/04/02 02:38:18;;;;;;;10.50;1.75;;;1.60;99.90;;;;;;4938354;28;20126;-85
2023/04/02 02:40:47;;;;;;;6.43;1.85;;;1.60;99.90;;;;;;4938758;28;20133;-85
2023/04/02 02:43:15;;;;;;;5.85;2.17;;;2.50;99.90;;;;;;4938894;28;20164;-86
2023/04/02 02:45:43;;;;;;;6.30;2.10;;;1.60;99.90;;;;;;4937997;28;20069;-85
2023/04/02 02:48:14;;;;;;;10.10;2.10;;;1.50;99.90;;;;;;4938751;28;20061;-86
2023/04/02 02:50:40;;;;;;;7.53;2.10;;;1.50;99.90;;;;;;4938432;28;20093;-85
2023/04/02 02:53:18;;;;;;;9.88;2.60;;;1.80;99.90;;;;;;4938249;28;20072;-86
2023/04/02 02:55:45;;;;;;;7.68;2.05;;;1.50;99.90;;;;;;4954888;28;20034;-85
2023/04/02 02:58:18;;;;;;;9.52;2.10;;;2.30;99.90;;;;;;4938819;28;20054;-86
2023/04/02 03:00:45;;;;;;;12.07;1.98;;;1.40;99.90;;;;;;4938109;28;20505;-86
2023/04/02 03:03:18;;;;;;;9.13;1.98;;;2.00;99.90;;;;;;4919986;29;20476;-85
2023/04/02 03:05:48;;;;;;;8.75;1.85;;;1.40;99.90;;;;;;4952932;28;20098;-86
2023/04/02 03:08:22;;;;;;;8.05;2.33;;;1.40;99.90;;;;;;4939050;28;20047;-86
2023/04/02 03:11:03;;;;;;;8.95;2.25;;;1.40;99.90;;;;;;4953861;28;20090;-85
2023/04/02 03:13:34;;;;;;;8.70;1.90;;;1.40;99.90;;;;;;4938349;28;20520;-85
2023/04/02 03:16:32;;;;;;;6.90;2.00;;;2.20;99.90;;;;;;4938732;28;20074;-85
2023/04/02 03:19:09;;;;;;;7.13;1.83;;;1.30;99.90;;;;;;4954590;28;20130;-85
2023/04/02 03:21:44;;;;;;;7.95;1.77;;;1.20;99.90;;;;;;4936290;28;20435;-85
2023/04/02 03:24:25;;;;;;;7.50;2.00;;;1.60;99.90;;;;;;4938437;28;20585;-86
2023/04/02 03:27:00;;;;;;;8.93;2.17;;;1.20;99.90;;;;;;4937584;28;20081;-85
2023/04/02 03:29:30;;;;;;;7.85;2.30;;;1.40;99.90;;;;;;4954611;28;20062;-86
2023/04/02 03:31:59;;;;;;;9.15;2.30;;;2.00;99.90;;;;;;4953466;28;20279;-85
2023/04/02 03:34:36;;;;;;;7.15;2.15;;;1.40;99.90;;;;;;4937536;28;20038;-85
2023/04/02 03:37:13;;;;;;;13.73;2.53;;;1.20;99.90;;;;;;4953416;28;20043;-86
2023/04/02 03:39:45;;;;;;;12.75;2.20;;;1.10;99.90;;;;;;4953822;28;20410;-85
2023/04/02 03:42:19;;;;;;;11.13;1.90;;;1.10;99.90;;;;;;4936915;28;20054;-85
2023/04/02 03:44:55;;;;;;;9.32;2.60;;;1.10;99.90;;;;;;4954159;28;20047;-86
2023/04/02 03:47:43;;;;;;;7.18;2.05;;;1.10;99.90;;;;;;4936979;28;20122;-86
2023/04/02 03:50:20;;;;;;;7.18;1.85;;;1.10;99.90;;;;;;4937050;28;20223;-86
2023/04/02 03:52:47;;;;;;;6.80;1.88;;;1.40;99.90;;;;;;4937113;28;20118;-84
2023/04/02 03:55:27;;;;;;;7.28;2.08;;;1.10;99.90;;;;;;4936727;28;20406;-85
2023/04/02 03:58:03;;;;;;;9.35;2.55;;;1.10;99.90;;;;;;4953679;28;20498;-85
2023/04/02 04:00:41;;;;;;;9.43;2.28;;;1.10;99.90;;;;;;4953446;28;20114;-85
2023/04/02 04:03:15;;;;;;;13.40;2.38;;;2.00;99.90;;;;;;4936867;28;20054;-85
2023/04/02 04:05:51;;;;;;;6.07;2.03;;;1.10;99.90;;;;;;4936399;28;20084;-85
2023/04/02 04:08:22;;;;;;;9.32;2.05;;;1.00;99.90;;;;;;4953483;28;20569;-85
2023/04/02 04:10:54;;;;;;;9.15;2.35;;;1.30;99.90;;;;;;4936978;28;20047;-85
2023/04/02 04:13:33;;;;;;;10.98;2.20;;;1.00;99.90;;;;;;4953399;28;20146;-84
2023/04/02 04:16:05;;;;;;;7.35;1.73;;;1.00;99.90;;;;;;4953472;28;20222;-85
2023/04/02 04:18:48;;;;;;;9.23;2.10;;;1.50;99.90;;;;;;4938360;28;20042;-87
2023/04/02 04:21:29;;;;;;;13.63;2.90;;;1.00;99.90;;;;;;4952959;28;20050;-84
2023/04/02 04:24:02;;;;;;;8.10;1.52;;;1.50;99.90;;;;;;4936876;28;20168;-85
2023/04/02 04:26:41;;;;;;;10.95;2.35;;;1.30;99.90;;;;;;4937723;28;20383;-86
2023/04/02 04:29:37;;;;;;;9.18;1.95;;;0.90;99.90;;;;;;4936955;28;20051;-86
2023/04/02 04:32:17;;;;;;;9.15;2.35;;;0.90;99.90;;;;;;4935682;28;20057;-85
2023/04/02 04:34:50;;;;;;;12.13;2.17;;;1.40;99.90;;;;;;4937578;28;20043;-86
2023/04/02 04:37:20;;;;;;;8.93;1.98;;;1.30;99.90;;;;;;4951761;28;20051;-86
2023/04/02 04:39:56;;;;;;;10.52;2.05;;;1.30;99.90;;;;;;4936720;28;20129;-85
2023/04/02 04:42:27;;;;;;;10.20;2.30;;;0.90;99.90;;;;;;4936521;28;20047;-85
2023/04/02 04:44:57;;;;;;;9.40;2.22;;;1.40;99.90;;;;;;4935990;28;20057;-85
2023/04/02 04:47:31;;;;;;;9.98;1.58;;;0.90;99.90;;;;;;4936715;28;20384;-85
2023/04/02 04:50:03;;;;;;;9.52;2.58;;;1.30;99.90;;;;;;4937118;28;20050;-86
2023/04/02 04:52:35;;;;;;;9.77;1.65;;;1.60;99.90;;;;;;4935216;28;20407;-86
2023/04/02 04:55:01;;;;;;;9.88;1.73;;;2.00;99.90;;;;;;4953161;28;20047;-86
2023/04/02 04:57:37;;;;;;;9.07;2.00;;;2.00;99.90;;;;;;4936026;28;20049;-86
2023/04/02 05:00:15;;;;;;;9.10;1.65;;;1.10;99.90;;;;;;4935405;28;20104;-86
2023/04/02 05:02:49;;;;;;;7.57;1.83;;;1.10;99.90;;;;;;4941347;28;20091;-86
2023/04/02 05:05:20;;;;;;;8.50;1.90;;;1.80;99.90;;;;;;4936543;28;20050;-85
2023/04/02 05:07:51;;;;;;;8.55;1.92;;;1.20;99.90;;;;;;4951589;28;20042;-86
2023/04/02 05:10:35;;;;;;;10.13;1.60;;;1.70;99.90;;;;;;4936258;28;20569;-85
2023/04/02 05:13:09;;;;;;;8.27;1.60;;;1.20;99.90;;;;;;4952061;28;20152;-87
2023/04/02 05:15:44;;;;;;;7.55;1.65;;;2.10;99.90;;;;;;4936395;28;20043;-86
2023/04/02 05:18:30;;;;;;;5.43;1.20;;;1.20;99.90;;;;;;4935949;28;20122;-86
2023/04/02 05:21:06;;;;;;;5.85;1.63;;;1.20;99.90;;;;;;4951297;28;20105;-87
2023/04/02 05:23:41;;;;;;;5.07;1.48;;;1.30;99.90;;;;;;4936129;28;20126;-87
2023/04/02 05:26:15;;;;;;;8.40;1.63;;;1.60;99.90;;;;;;4936544;28;20047;-86
2023/04/02 05:28:45;;;;;;;8.73;1.58;;;1.30;99.90;;;;;;4951483;28;20094;-87
2023/04/02 05:31:18;;;;;;;7.95;1.58;;;1.90;99.90;;;;;;4935547;28;20105;-86
2023/04/02 05:33:47;;;;;;;10.65;2.00;;;2.20;99.90;;;;;;4935609;28;20121;-86
2023/04/02 05:36:21;;;;;;;9.55;1.63;;;1.80;99.90;;;;;;4935056;28;20074;-86
2023/04/02 05:38:49;;;;;;;9.30;1.70;;;1.40;99.90;;;;;;4930386;28;20114;-86
2023/04/02 05:41:26;;;;;;;4.75;1.48;;;1.40;99.90;;;;;;4933222;28;20142;-86
2023/04/02 05:44:07;;;;;;;5.95;1.52;;;1.40;99.90;;;;;;4933228;28;20050;-86
2023/04/02 05:46:36;;;;;;;5.93;1.30;;;1.40;99.90;;;;;;4925998;28;20132;-85
2023/04/02 05:49:06;;;;;;;7.60;2.10;;;2.20;99.90;;;;;;4931781;28;20058;-86
2023/04/02 05:51:42;;;;;;;6.68;1.50;;;1.40;99.90;;;;;;4932722;28;20388;-86
2023/04/02 05:54:22;;;;;;;7.32;1.88;;;1.40;99.90;;;;;;4933471;28;20130;-86
2023/04/02 05:56:52;;;;;;;8.60;1.48;;;1.40;99.90;;;;;;4932362;28;20050;-86
2023/04/02 05:59:26;;;;;;;5.55;1.73;;;1.40;99.90;;;;;;4949181;28;20146;-86
2023/04/02 06:02:03;;;;;;;8.50;1.65;;;1.30;99.90;;;;;;4945144;28;20039;-86
2023/04/02 06:04:52;;;;;;;6.93;1.52;;;1.40;99.90;;;;;;4950407;28;20038;-86
2023/04/02 06:07:22;;;;;;;7.75;1.95;;;1.50;99.90;;;;;;4922791;28;20045;-86
2023/04/02 06:09:59;;;;;;;10.05;1.80;;;1.50;99.90;;;;;;4934003;29;20126;-86
2023/04/02 06:12:44;;;;;;;6.18;1.27;;;1.60;99.90;;;;;;4934957;28;20046;-86
2023/04/02 06:15:15;;;;;;;11.65;1.42;;;1.70;99.90;;;;;;4924057;28;20149;-86
2023/04/02 06:17:59;;;;;;;7.55;1.70;;;1.70;99.90;;;;;;4917495;29;20051;-85
2023/04/02 06:20:26;;;;;;;6.65;1.95;;;1.80;99.90;;;;;;4921900;28;20150;-86
2023/04/02 06:23:01;;;;;;;10.20;1.92;;;1.90;99.90;;;;;;4923739;28;20053;-86
2023/04/02 06:25:31;;;;;;;10.30;1.90;;;2.00;99.90;;;;;;4933553;29;20074;-88
2023/04/02 06:28:00;;;;;;;12.13;2.38;;;2.10;99.90;;;;;;4943106;28;20133;-88
2023/04/02 06:30:36;;;;;;;9.10;1.92;;;2.20;99.90;;;;;;4919194;29;20048;-86
2023/04/02 06:33:03;;;;;;;9.18;1.80;;;2.20;99.90;;;;;;4939045;28;20089;-87
2023/04/02 06:35:29;;;;;;;9.68;1.75;;;2.30;99.90;;;;;;4928525;28;20118;-89
2023/04/02 06:38:00;;;;;;;7.10;1.80;;;3.00;99.90;;;;;;4948017;28;20510;-88
2023/04/02 06:40:37;;;;;;;12.77;2.50;;;2.30;99.90;;;;;;4923132;29;20048;-87
2023/04/02 06:43:13;;;;;;;6.07;1.88;;;2.30;99.90;;;;;;4948560;28;20046;-87
2023/04/02 06:45:42;;;;;;;8.98;2.00;;;3.40;99.90;;;;;;4933354;28;20034;-86
2023/04/02 06:48:16;;;;;;;9.15;1.73;;;2.30;99.90;;;;;;4944589;28;20069;-84
2023/04/02 06:50:49;;;;;;;8.50;1.65;;;2.40;99.90;;;;;;4945286;28;20054;-85
2023/04/02 06:53:31;;;;;;;6.28;1.67;;;2.50;99.90;;;;;;4946837;28;20055;-85
2023/04/02 06:56:21;;;;;;;9.48;1.90;;;2.60;99.90;;;;;;4932858;28;20050;-86
2023/04/02 06:58:47;;;;;;;5.30;1.40;;;2.60;99.90;;;;;;4938308;28;20087;-85
2023/04/02 07:01:22;;;;;;;4.88;1.48;;;2.70;99.90;;;;;;4943497;28;20694;-86
2023/04/02 07:03:48;;;;;;;7.20;1.77;;;2.80;99.90;;;;;;4931847;28;20043;-86
2023/04/02 07:06:16;;;;;;;8.18;2.05;;;2.90;99.90;;;;;;4931660;28;20325;-87
2023/04/02 07:08:42;;;;;;;7.70;1.48;;;2.90;99.90;;;;;;4947060;28;20043;-87
2023/04/02 07:11:15;;;;;;;9.77;1.65;;;3.20;99.90;;;;;;4929379;28;20533;-88
2023/04/02 07:13:41;;;;;;;5.95;1.60;;;3.00;99.90;;;;;;4932507;28;20427;-87
2023/04/02 07:16:15;;;;;;;10.15;2.00;;;3.10;99.90;;;;;;4934919;29;20047;-87
2023/04/02 07:18:44;;;;;;;6.38;1.50;;;3.20;99.90;;;;;;4937788;28;20398;-87
2023/04/02 07:21:16;;;;;;;4.72;1.20;;;3.30;99.90;;;;;;4936055;28;20078;-87
2023/04/02 07:23:42;;;;;;;6.05;1.63;;;3.40;99.90;;;;;;4924479;28;20046;-85
2023/04/02 07:26:12;;;;;;;9.95;1.73;;;3.50;99.90;;;;;;4922526;28;20606;-86
2023/04/02 07:28:38;;;;;;;5.45;1.30;;;3.70;99.90;;;;;;4937460;28;20079;-86
2023/04/02 07:31:15;;;;;;;5.25;1.40;;;3.70;99.90;;;;;;4918886;28;20492;-86
2023/04/02 07:33:41;;;;;;;6.40;1.15;;;3.80;99.90;;;;;;4933719;28;20133;-87
2023/04/02 07:36:11;;;;;;;5.72;1.52;;;3.80;99.90;;;;;;4920797;28;20566;-86
2023/04/02 07:38:44;;;;;;;6.13;1.30;;;3.50;99.90;;;;;;4927849;28;20061;-87
2023/04/02 07:41:10;;;;;;;;;;;3.90;99.90;;;;;;4933479;28;20043;-87
2023/04/02 07:43:37;;;;;;;4.75;1.30;;;4.60;99.90;;;;;;4938316;28;19934;-87
2023/04/02 07:46:03;;;;;;;5.32;1.40;;;4.00;99.90;;;;;;4922451;28;20032;-85
2023/04/02 07:48:32;;;;;;;6.72;1.17;;;4.00;99.90;;;;;;4925210;28;20035;-86
2023/04/02 07:51:02;;;;;;;8.68;1.88;;;4.10;99.90;;;;;;4926966;28;20047;-86
2023/04/02 07:53:37;;;;;;;9.48;1.70;;;4.20;99.90;;;;;;4931484;28;20118;-87
2023/04/02 07:56:04;;;;;;;5.53;1.77;;;4.20;99.90;;;;;;4938172;28;20043;-87
2023/04/02 07:58:31;;;;;;;5.30;1.27;;;4.30;99.90;;;;;;4938236;28;20054;-86
2023/04/02 08:00:58;;;;;;;5.70;1.27;;;4.30;99.90;;;;;;4949734;28;20051;-85
2023/04/02 08:03:24;;;;;;;6.95;1.08;;;4.30;99.90;;;;;;4929637;28;20356;-87
2023/04/02 08:05:52;;;;;;;10.45;1.80;;;4.40;99.90;;;;;;4946688;28;20499;-86
2023/04/02 08:08:19;;;;;;;9.15;1.60;;;4.50;99.90;;;;;;4942100;28;20156;-86
2023/04/02 08:10:45;;;;;;;5.40;1.50;;;4.50;99.90;;;;;;4935058;28;20054;-87
2023/04/02 08:13:18;;;;;;;7.00;1.13;;;4.50;99.90;;;;;;4942671;28;20055;-87
2023/04/02 08:15:44;;;;;;;8.47;1.40;;;4.40;99.90;;;;;;4930168;28;20141;-86
2023/04/02 08:18:11;;;;;;;7.25;1.45;;;4.30;99.90;;;;;;4927888;28;20047;-86
2023/04/02 08:20:43;;;;;;;6.85;1.95;;;5.00;99.90;;;;;;4944731;28;20475;-86
2023/04/02 08:23:15;;;;;;;7.83;1.20;;;4.10;99.90;;;;;;4929665;28;20166;-86
2023/04/02 08:25:41;;;;;;;6.45;1.40;;;4.20;99.90;;;;;;4934813;28;20877;-85
2023/04/02 08:28:13;;;;;;;6.18;1.50;;;4.90;99.90;;;;;;4950211;28;20050;-86
2023/04/02 08:30:39;;;;;;;5.40;1.33;;;4.60;99.90;;;;;;4927084;29;20050;-86
2023/04/02 08:33:14;;;;;;;4.95;1.35;;;4.40;99.90;;;;;;4923464;28;20051;-87
2023/04/02 08:35:40;;;;;;;5.00;1.23;;;4.50;99.90;;;;;;4934856;29;20503;-86
2023/04/02 08:38:06;;;;;;;6.60;1.30;;;4.60;99.90;;;;;;4920789;28;20046;-86
2023/04/02 08:40:36;;;;;;;7.70;1.75;;;4.90;99.90;;;;;;4924087;29;20044;-88
2023/04/02 08:43:29;;;;;;;3.50;1.05;;;4.60;99.90;;;;;;4951915;28;20058;-87
2023/04/02 08:46:02;;;;;;;5.55;1.35;;;4.70;99.90;;;;;;4936354;28;20125;-87
2023/04/02 08:48:31;;;;;;;3.17;1.00;;;4.80;99.90;;;;;;4936854;28;20050;-87
2023/04/02 08:50:58;;;;;;;6.53;1.30;;;4.90;99.90;;;;;;4935452;28;20078;-87
2023/04/02 08:53:29;;;;;;;4.78;1.20;;;4.90;99.90;;;;;;4935037;28;20403;-86
2023/04/02 08:56:02;;;;;;;4.97;1.17;;;5.10;99.90;;;;;;4965992;28;20051;-86
2023/04/02 08:58:35;;;;;;;7.75;1.63;;;5.20;99.90;;;;;;4933064;28;20047;-87
2023/04/02 09:01:04;;;;;;;7.55;1.30;;;5.30;99.90;;;;;;4930031;28;20126;-86
2023/04/02 09:03:37;;;;;;;7.45;1.75;;;5.40;99.90;;;;;;4927568;28;20052;-86
2023/04/02 09:06:05;;;;;;;9.27;1.58;;;5.40;99.90;;;;;;4934500;28;20059;-87
2023/04/02 09:08:32;;;;;;;5.45;1.42;;;5.40;99.90;;;;;;4934941;28;20068;-87
2023/04/02 09:11:02;;;;;;;4.70;1.60;;;4.90;99.90;;;;;;4935397;28;20051;-86
2023/04/02 09:13:30;;;;;;;8.73;1.15;;;5.90;99.90;;;;;;4935128;28;20057;-88
2023/04/02 09:16:10;;;;;;;7.05;1.48;;;5.60;99.90;;;;;;4932988;28;20538;-86
2023/04/02 09:18:37;;;;;;;7.72;1.42;;;5.70;99.90;;;;;;4935087;28;20053;-86
2023/04/02 09:21:30;;;;;;;5.32;1.25;;;6.00;99.90;;;;;;4935425;28;20667;-86
2023/04/02 09:23:56;;;;;;;10.15;1.45;;;5.90;99.90;;;;;;4952201;28;20488;-85
2023/04/02 09:26:26;;;;;;;8.02;1.77;;;6.00;99.90;;;;;;4935232;28;20062;-86
2023/04/02 09:29:00;;;;;;;4.97;1.35;;;6.10;99.90;;;;;;4932773;28;20473;-86
2023/04/02 09:31:39;;;;;;;9.32;1.35;;;6.10;99.90;;;;;;4951296;28;20046;-86
2023/04/02 09:34:29;;;;;;;4.32;1.00;;;6.30;99.90;;;;;;4935354;28;20063;-87
2023/04/02 09:36:56;;;;;;;6.75;1.23;;;6.40;99.90;;;;;;4941451;28;20132;-86
2023/04/02 09:39:25;;;;;;;7.90;1.92;;;6.40;99.90;;;;;;4951264;28;20441;-86
2023/04/02 09:41:52;;;;;;;5.47;1.33;;;6.50;99.90;;;;;;4935217;28;20061;-86
2023/04/02 09:44:26;;;;;;;8.10;1.50;;;6.90;99.90;;;;;;4950864;28;20146;-87
2023/04/02 09:46:58;;;;;;;5.93;1.10;;;6.70;99.90;;;;;;4950693;28;20514;-86
2023/04/02 09:49:27;;;;;;;5.83;1.53;;;6.80;99.90;;;;;;4952209;28;20054;-86
2023/04/02 09:52:19;;;;;;;6.05;2.13;;;6.90;99.90;;;;;;4934790;28;20348;-86
2023/04/02 09:54:46;;;;;;;6.97;1.20;;;7.10;99.90;;;;;;4935467;28;20054;-86
2023/04/02 09:57:23;;;;;;;5.60;1.23;;;7.20;99.90;;;;;;4951250;28;20134;-86
2023/04/02 10:00:11;;;;;;;8.57;1.80;;;7.30;99.90;;;;;;4935805;28;20097;-86
2023/04/02 10:02:38;;;;;;;6.93;1.27;;;7.40;99.90;;;;;;4939392;28;20082;-86
2023/04/02 10:05:05;;;;;;;7.07;2.25;;;7.50;99.90;;;;;;4936393;28;20053;-87
2023/04/02 10:07:36;;;;;;;7.75;1.60;;;7.50;99.90;;;;;;4951193;28;20112;-86
2023/04/02 10:10:15;;;;;;;6.38;1.23;;;7.50;99.90;;;;;;4935039;28;20131;-91
2023/04/02 10:12:44;;;;;;;5.35;1.25;;;7.60;99.90;;;;;;4935431;28;20050;-87
2023/04/02 10:15:17;;;;;;;5.03;0.88;;;7.60;99.90;;;;;;4949156;28;20487;-87
2023/04/02 10:17:45;;;;;;;4.28;0.80;;;7.70;99.90;;;;;;4950986;28;20050;-87
2023/04/02 10:20:22;;;;;;;5.13;1.02;;;7.70;99.90;;;;;;4921369;28;20130;-88
2023/04/02 10:22:48;;;;;;;3.65;0.95;;;7.70;99.90;;;;;;4917677;29;20483;-86
2023/04/02 10:25:16;;;;;;;4.25;1.25;;;7.70;99.90;;;;;;4939656;28;20051;-87
2023/04/02 10:27:52;;;;;;;3.67;0.88;;;7.70;99.90;;;;;;4935471;28;20154;-87
2023/04/02 10:30:22;;;;;;;4.82;1.27;;;7.80;99.90;;;;;;4932642;28;20558;-87
2023/04/02 10:32:58;;;;;;;5.38;1.05;;;7.90;99.90;;;;;;4927216;28;20043;-87
2023/04/02 10:35:31;;;;;;;6.53;1.27;;;7.90;99.90;;;;;;4926436;28;20062;-87
2023/04/02 10:38:12;;;;;;;3.78;0.82;;;7.90;99.90;;;;;;4930296;29;20039;-86
2023/04/02 10:40:53;;;;;;;4.78;0.90;;;8.00;99.90;;;;;;4941904;28;20078;-86
2023/04/02 10:43:29;;;;;;;2.65;0.80;;;8.00;99.90;;;;;;4935488;29;20039;-86
2023/04/02 10:46:01;;;;;;;3.90;1.02;;;8.00;99.90;;;;;;4925242;28;20057;-87
2023/04/02 10:48:45;;;;;;;11.18;3.58;;;8.00;99.90;;;;;;4927140;28;20057;-86
2023/04/02 10:51:42;;;;;;;5.80;2.17;;;8.00;99.90;;;;;;4921058;28;20126;-84
2023/04/02 10:54:26;;;;;;;3.70;1.27;;;8.20;99.90;;;;;;4951112;28;20153;-84
2023/04/02 10:56:53;;;;;;;3.33;0.73;;;8.20;99.90;;;;;;4938315;28;20057;-84
2023/04/02 10:59:22;;;;;;;4.60;0.90;;;8.30;99.90;;;;;;4937877;28;20043;-85
2023/04/02 11:01:57;;;;;;;3.67;0.70;;;8.40;99.90;;;;;;4938574;28;20050;-84
2023/04/02 11:04:40;;;;;;;3.28;0.75;;;8.40;99.90;;;;;;4954023;28;20489;-85
2023/04/02 11:07:11;;;;;;;4.80;0.60;;;8.30;99.90;;;;;;4937212;28;20088;-84
2023/04/02 11:09:42;;;;;;;3.42;0.80;;;8.40;99.90;;;;;;4954387;28;20120;-84
2023/04/02 11:12:34;;;;;;;5.18;0.60;;;8.60;99.90;;;;;;4939809;28;20431;-84
2023/04/02 11:15:00;;;;;;;8.63;1.42;;;8.60;99.90;;;;;;4942763;28;20149;-85
2023/04/02 11:17:27;;;;;;;2.90;0.60;;;8.70;99.90;;;;;;4938522;28;20051;-85
2023/04/02 11:19:53;;;;;;;3.33;0.82;;;8.60;99.90;;;;;;4937631;28;20047;-85
2023/04/02 11:22:22;;;;;;;4.53;0.80;;;8.60;99.90;;;;;;4937394;28;20054;-85
2023/04/02 11:24:50;;;;;;;3.97;0.65;;;8.60;99.90;;;;;;4938512;28;20050;-84
2023/04/02 11:27:23;;;;;;;4.55;0.70;;;8.60;99.90;;;;;;4937457;28;20074;-84
2023/04/02 11:29:56;;;;;;;4.10;0.93;;;8.70;99.90;;;;;;4938946;28;20438;-85
2023/04/02 11:32:24;;;;;;;3.90;0.80;;;8.80;99.90;;;;;;4934985;28;20588;-84
2023/04/02 11:34:50;;;;;;;3.55;0.80;;;8.90;99.90;;;;;;4938681;28;20058;-85
2023/04/02 11:37:28;;;;;;;3.65;0.70;;;9.00;99.90;;;;;;4937666;28;20054;-85
2023/04/02 11:39:57;;;;;;;4.40;0.70;;;9.00;99.90;;;;;;4937277;28;20624;-85
2023/04/02 11:42:26;;;;;;;3.92;0.80;;;9.10;99.90;;;;;;4938470;28;20078;-85
2023/04/02 11:44:53;;;;;;;5.28;0.98;;;9.10;99.90;;;;;;4937938;28;20046;-84
2023/04/02 11:47:23;;;;;;;4.28;0.60;;;9.10;99.90;;;;;;4936988;28;20479;-84
2023/04/02 11:49:56;;;;;;;2.92;0.82;;;9.20;99.90;;;;;;4937735;28;20038;-84
2023/04/02 11:52:25;;;;;;;3.78;0.98;;;9.20;99.90;;;;;;4937042;28;20043;-84
2023/04/02 11:54:59;;;;;;;5.15;0.95;;;9.20;99.90;;;;;;4936784;28;20551;-84
2023/04/02 11:57:36;;;;;;;6.88;0.68;;;9.20;99.90;;;;;;4937239;28;20046;-84
2023/04/02 12:00:20;;;;;;;3.65;0.73;;;9.20;99.90;;;;;;4937755;28;20052;-84
2023/04/02 12:03:15;;;;;;;6.55;0.70;;;9.20;99.90;;;;;;4954536;28;20069;-84
2023/04/02 12:05:53;;;;;;;2.35;0.80;;;9.30;99.90;;;;;;4952993;28;20053;-85
2023/04/02 12:08:24;;;;;;;2.67;0.60;;;9.20;99.90;;;;;;4935787;28;20086;-84
2023/04/02 12:10:55;;;;;;;4.18;0.60;;;9.20;99.90;;;;;;4953312;28;20046;-84
2023/04/02 12:13:40;;;;;;;4.35;0.60;;;9.20;99.90;;;;;;4953625;28;20050;-84
2023/04/02 12:16:08;;;;;;;2.90;0.70;;;9.20;99.90;;;;;;4952867;28;20081;-85
2023/04/02 12:18:35;;;;;;;2.05;0.43;;;9.30;99.90;;;;;;4937583;28;20039;-85
2023/04/02 12:21:07;;;;;;;2.15;0.63;;;9.40;99.90;;;;;;4938164;28;20586;-85
2023/04/02 12:23:36;;;;;;;2.58;0.75;;;9.40;99.90;;;;;;4936352;28;20118;-85
2023/04/02 12:26:25;;;;;;;4.50;0.80;;;9.40;99.90;;;;;;4937600;28;20051;-85
2023/04/02 12:28:51;;;;;;;3.30;0.45;;;9.40;99.90;;;;;;4937683;28;20577;-85
2023/04/02 12:31:26;;;;;;;2.78;0.80;;;9.40;99.90;;;;;;4952473;28;20795;-85
2023/04/02 12:33:52;;;;;;;3.08;0.85;;;9.40;99.90;;;;;;4937324;28;20074;-85
2023/04/02 12:36:23;;;;;;;3.65;0.90;;;9.50;99.90;;;;;;4935839;28;20406;-84
2023/04/02 12:39:00;;;;;;;9.13;0.95;;;9.50;99.90;;;;;;4953296;28;20051;-85
2023/04/02 12:41:30;;;;;;;3.40;0.40;;;9.50;99.90;;;;;;4953148;28;20138;-85
2023/04/02 12:43:58;;;;;;;4.28;0.70;;;9.60;99.90;;;;;;4936123;28;20150;-85
2023/04/02 12:46:25;;;;;;;4.05;0.70;;;9.60;99.90;;;;;;4936955;28;20050;-85
2023/04/02 12:48:53;;;;;;;2.53;0.50;;;9.60;99.90;;;;;;4952785;28;20094;-85
2023/04/02 12:51:20;;;;;;;3.03;0.65;;;9.60;99.90;;;;;;4935922;28;20050;-85
2023/04/02 12:53:58;;;;;;;2.22;0.60;;;9.70;99.90;;;;;;4952274;28;20383;-85
2023/04/02 12:56:23;;;;;;;3.95;0.90;;;9.60;99.90;;;;;;4936385;28;20038;-85
2023/04/02 12:58:54;;;;;;;3.28;0.73;;;9.60;99.90;;;;;;4936301;28;20118;-85
2023/04/02 13:01:23;;;;;;;2.78;0.70;;;9.60;99.90;;;;;;4936244;28;20130;-84
2023/04/02 13:04:13;;;;;;;2.17;0.50;;;9.60;99.90;;;;;;4936112;28;20093;-85
2023/04/02 13:06:46;;;;;;;2.28;0.70;;;9.60;99.90;;;;;;4936010;28;20059;-84
2023/04/02 13:09:33;;;;;;;5.20;0.90;;;9.60;99.90;;;;;;4936482;28;20218;-84
2023/04/02 13:12:00;;;;;;;2.75;0.55;;;9.50;99.90;;;;;;4951648;28;20558;-84
2023/04/02 13:14:26;;;;;;;2.47;0.80;;;9.50;99.90;;;;;;4936201;28;20038;-85
2023/04/02 13:16:53;;;;;;;3.22;0.70;;;9.60;99.90;;;;;;4936220;28;20050;-84
2023/04/02 13:19:24;;;;;;;1.92;0.57;;;9.70;99.90;;;;;;4935314;28;20057;-85
2023/04/02 13:21:51;;;;;;;2.42;0.55;;;9.80;99.90;;;;;;4935640;28;20512;-84
2023/04/02 13:24:20;;;;;;;2.72;0.60;;;9.80;99.90;;;;;;4936613;28;20062;-85
2023/04/02 13:26:48;;;;;;;2.60;0.70;;;9.80;99.90;;;;;;4935480;28;20073;-85